Time;durP1;ratioP1;P1;durP2;ratioP2;P2;SDS_P1;SDS_P2;PMS_P1;PMS_P2;Temp;Humidity;BMP_temperature;BMP_pressure;BME280_temperature;BME280_humidity;BME280_pressure;Samples;Min_cycle;Max_cycle;Signal;HPM_P1;HPM_P2
2021/04/07 00:01:04;;;;;;;14.45;6.15;;;14.70;99.90;;;;;;5052824;28;20076;-61
2021/04/07 00:03:33;;;;;;;11.73;5.90;;;14.70;99.90;;;;;;5035645;28;20057;-60
2021/04/07 00:06:04;;;;;;;12.52;6.75;;;14.70;99.90;;;;;;5053015;28;20052;-60
2021/04/07 00:08:32;;;;;;;11.73;5.70;;;14.70;99.90;;;;;;5036506;28;20403;-60
2021/04/07 00:11:03;;;;;;;18.08;5.90;;;14.70;99.90;;;;;;5054104;28;20045;-61
2021/04/07 00:13:30;;;;;;;16.65;6.07;;;14.60;99.90;;;;;;5045897;28;20049;-60
2021/04/07 00:15:58;;;;;;;11.43;5.45;;;14.60;99.90;;;;;;5019466;28;20056;-60
2021/04/07 00:18:25;;;;;;;16.52;5.78;;;14.60;99.90;;;;;;5051469;28;20049;-60
2021/04/07 00:20:52;;;;;;;19.40;7.25;;;14.60;99.90;;;;;;5051621;28;20049;-59
2021/04/07 00:23:20;;;;;;;16.30;5.88;;;14.60;99.90;;;;;;5036706;28;20053;-60
2021/04/07 00:25:47;;;;;;;9.52;6.13;;;14.60;99.90;;;;;;5052442;28;20056;-59
2021/04/07 00:28:19;;;;;;;15.43;5.20;;;14.60;99.90;;;;;;5018810;28;20061;-59
2021/04/07 00:30:48;;;;;;;16.88;7.10;;;14.60;99.90;;;;;;5036924;28;20195;-60
2021/04/07 00:33:17;;;;;;;13.38;5.28;;;14.60;99.90;;;;;;5036573;28;20045;-59
2021/04/07 00:35:44;;;;;;;12.95;5.95;;;14.60;99.90;;;;;;5036698;28;20045;-60
2021/04/07 00:38:12;;;;;;;16.20;6.68;;;14.60;99.90;;;;;;5054162;28;20118;-59
2021/04/07 00:40:40;;;;;;;16.52;5.75;;;14.60;99.90;;;;;;5036562;28;20131;-60
2021/04/07 00:43:08;;;;;;;16.45;6.75;;;14.60;99.90;;;;;;5059685;28;20057;-59
2021/04/07 00:45:35;;;;;;;14.80;6.60;;;14.60;99.90;;;;;;5056087;28;20490;-59
2021/04/07 00:48:03;;;;;;;14.10;6.63;;;14.60;99.90;;;;;;5072671;28;20044;-60
2021/04/07 00:50:32;;;;;;;16.55;6.30;;;14.60;99.90;;;;;;5056329;28;20051;-60
2021/04/07 00:53:01;;;;;;;18.48;6.55;;;14.60;99.90;;;;;;5056328;28;20553;-59
2021/04/07 00:55:33;;;;;;;14.20;5.70;;;14.60;99.90;;;;;;5056215;28;20114;-60
2021/04/07 00:58:03;;;;;;;13.43;6.93;;;14.60;99.90;;;;;;5056327;28;20056;-60
2021/04/07 01:00:31;;;;;;;20.70;6.90;;;14.60;99.90;;;;;;5072776;28;20090;-60
2021/04/07 01:03:02;;;;;;;15.80;5.55;;;14.60;99.90;;;;;;5056049;28;20072;-59
2021/04/07 01:05:30;;;;;;;12.70;6.53;;;14.60;99.90;;;;;;5072504;28;20139;-59
2021/04/07 01:07:58;;;;;;;13.15;6.20;;;14.60;99.90;;;;;;5055764;28;20048;-60
2021/04/07 01:10:26;;;;;;;12.20;6.70;;;14.60;99.90;;;;;;5055954;28;20048;-60
2021/04/07 01:12:54;;;;;;;13.63;6.00;;;14.60;99.90;;;;;;5055881;28;20044;-60
2021/04/07 01:15:25;;;;;;;15.85;6.65;;;14.60;99.90;;;;;;5073368;28;20491;-59
2021/04/07 01:17:55;;;;;;;15.13;6.72;;;14.70;99.90;;;;;;5072240;28;20139;-59
2021/04/07 01:20:22;;;;;;;14.98;5.22;;;14.70;99.90;;;;;;5072452;28;20052;-59
2021/04/07 01:22:58;;;;;;;12.25;5.53;;;14.80;99.90;;;;;;5055519;28;20056;-60
2021/04/07 01:25:28;;;;;;;9.77;5.32;;;14.90;99.90;;;;;;5073515;28;20129;-60
2021/04/07 01:28:00;;;;;;;5.95;2.65;;;15.00;99.90;;;;;;5055689;28;20052;-59
2021/04/07 01:30:29;;;;;;;3.40;2.10;;;15.00;99.90;;;;;;5072612;28;20093;-60
2021/04/07 01:32:56;;;;;;;5.07;1.45;;;15.10;99.90;;;;;;5072078;28;20453;-60
2021/04/07 01:35:27;;;;;;;4.35;2.28;;;15.00;99.90;;;;;;5055557;28;20560;-60
2021/04/07 01:37:54;;;;;;;10.18;1.80;;;14.80;99.90;;;;;;5055993;28;20067;-60
2021/04/07 01:40:21;;;;;;;7.40;2.03;;;14.70;99.90;;;;;;5072140;28;20135;-60
2021/04/07 01:42:50;;;;;;;10.93;1.88;;;14.70;99.90;;;;;;5077657;28;20056;-59
2021/04/07 01:45:18;;;;;;;5.55;1.55;;;14.60;99.90;;;;;;5059053;28;20116;-60
2021/04/07 01:47:46;;;;;;;4.40;2.15;;;14.50;99.90;;;;;;5058732;28;20055;-60
2021/04/07 01:50:13;;;;;;;4.88;1.42;;;14.50;99.90;;;;;;5075607;28;20048;-59
2021/04/07 01:52:40;;;;;;;3.03;1.50;;;14.40;99.90;;;;;;5075665;28;20158;-60
2021/04/07 01:55:08;;;;;;;3.50;1.45;;;14.40;99.90;;;;;;5058930;28;20051;-59
2021/04/07 01:57:36;;;;;;;3.17;1.02;;;14.30;99.90;;;;;;5075515;28;20052;-60
2021/04/07 02:00:10;;;;;;;4.80;1.48;;;14.30;99.90;;;;;;5062111;28;20504;-60
2021/04/07 02:02:40;;;;;;;7.75;2.75;;;14.10;99.90;;;;;;5097485;28;20063;-60
2021/04/07 02:05:08;;;;;;;5.38;1.23;;;14.00;99.90;;;;;;5079546;28;20165;-60
2021/04/07 02:07:36;;;;;;;9.20;1.98;;;14.00;99.90;;;;;;5079560;28;20505;-60
2021/04/07 02:10:07;;;;;;;4.25;1.33;;;14.00;99.90;;;;;;5079422;28;20562;-60
2021/04/07 02:12:34;;;;;;;3.33;1.15;;;14.00;99.90;;;;;;5079066;28;20410;-60
2021/04/07 02:15:07;;;;;;;4.80;1.30;;;14.00;99.90;;;;;;5079261;28;20121;-60
2021/04/07 02:17:34;;;;;;;4.95;1.92;;;14.00;99.90;;;;;;5078822;28;20131;-60
2021/04/07 02:20:03;;;;;;;4.28;1.20;;;13.90;99.90;;;;;;5078948;28;20085;-60
2021/04/07 02:22:30;;;;;;;8.20;1.88;;;13.80;99.90;;;;;;5079169;28;20078;-60
2021/04/07 02:24:58;;;;;;;3.58;1.63;;;13.80;99.90;;;;;;5097000;28;20047;-60
2021/04/07 02:27:26;;;;;;;4.03;1.80;;;13.80;99.90;;;;;;5062360;28;20044;-60
2021/04/07 02:29:57;;;;;;;3.17;1.38;;;13.80;99.90;;;;;;5078823;28;20098;-60
2021/04/07 02:32:25;;;;;;;3.17;1.60;;;13.80;99.90;;;;;;5078699;28;20052;-60
2021/04/07 02:34:53;;;;;;;6.80;1.80;;;13.80;99.90;;;;;;5045649;28;20048;-60
2021/04/07 02:37:20;;;;;;;2.75;1.40;;;13.70;99.90;;;;;;5061967;28;20052;-60
2021/04/07 02:39:49;;;;;;;4.30;1.20;;;13.70;99.90;;;;;;5078792;28;20127;-60
2021/04/07 02:42:19;;;;;;;2.40;1.38;;;13.70;99.90;;;;;;5062087;28;20052;-60
2021/04/07 02:44:47;;;;;;;8.35;1.73;;;13.70;99.90;;;;;;5078744;28;20371;-60
2021/04/07 02:47:15;;;;;;;3.35;1.35;;;13.70;99.90;;;;;;5060685;28;20181;-60
2021/04/07 02:49:43;;;;;;;4.70;1.45;;;13.70;99.90;;;;;;5078454;28;20051;-60
2021/04/07 02:52:10;;;;;;;5.50;2.35;;;13.70;99.90;;;;;;5061999;28;20490;-60
2021/04/07 02:54:38;;;;;;;5.53;1.70;;;13.70;99.90;;;;;;5061479;28;20064;-60
2021/04/07 02:57:06;;;;;;;4.45;1.70;;;13.70;99.90;;;;;;5045215;28;20051;-60
2021/04/07 02:59:35;;;;;;;3.65;1.58;;;13.70;99.90;;;;;;5078180;28;20180;-60
2021/04/07 03:02:05;;;;;;;3.42;1.45;;;13.60;99.90;;;;;;5062049;28;20058;-60
2021/04/07 03:04:33;;;;;;;5.13;1.70;;;13.60;99.90;;;;;;5061617;28;20051;-60
2021/04/07 03:07:01;;;;;;;3.00;1.45;;;13.60;99.90;;;;;;5045060;28;20551;-60
2021/04/07 03:09:29;;;;;;;5.43;1.85;;;13.70;99.90;;;;;;5077716;28;20044;-60
2021/04/07 03:11:57;;;;;;;5.85;1.77;;;13.70;99.90;;;;;;5078169;28;20048;-60
2021/04/07 03:14:24;;;;;;;8.07;1.95;;;13.60;99.90;;;;;;5078110;28;20479;-60
2021/04/07 03:16:52;;;;;;;4.22;2.35;;;13.70;99.90;;;;;;5061258;28;20077;-60
2021/04/07 03:19:19;;;;;;;3.50;1.42;;;13.60;99.90;;;;;;5061434;28;20130;-60
2021/04/07 03:21:46;;;;;;;4.25;1.77;;;13.60;99.90;;;;;;5077164;28;20048;-60
2021/04/07 03:24:14;;;;;;;4.05;2.45;;;13.60;99.90;;;;;;5095627;28;20072;-60
2021/04/07 03:26:41;;;;;;;4.32;1.17;;;13.60;99.90;;;;;;5078148;28;20135;-60
2021/04/07 03:29:08;;;;;;;4.32;1.13;;;13.60;99.90;;;;;;5077861;28;20048;-60
2021/04/07 03:31:36;;;;;;;3.42;1.30;;;13.60;99.90;;;;;;5095629;28;20058;-60
2021/04/07 03:34:03;;;;;;;3.20;1.38;;;13.60;99.90;;;;;;5095672;28;20071;-60
2021/04/07 03:36:30;;;;;;;5.55;1.83;;;13.60;99.90;;;;;;5060694;28;20075;-60
2021/04/07 03:38:58;;;;;;;5.70;2.63;;;13.70;99.90;;;;;;5078048;28;20102;-60
2021/04/07 03:41:25;;;;;;;11.85;3.03;;;13.60;99.90;;;;;;5095507;28;20059;-60
2021/04/07 03:43:52;;;;;;;3.47;1.58;;;13.60;99.90;;;;;;5060944;28;20104;-60
2021/04/07 03:46:20;;;;;;;8.80;2.15;;;13.60;99.90;;;;;;5077830;28;20052;-60
2021/04/07 03:48:47;;;;;;;10.75;2.40;;;13.60;99.90;;;;;;5077316;28;20044;-60
2021/04/07 03:51:15;;;;;;;2.63;1.45;;;13.60;99.90;;;;;;5077484;28;20080;-60
2021/04/07 03:53:43;;;;;;;6.07;2.00;;;13.60;99.90;;;;;;5077293;28;20178;-60
2021/04/07 03:56:11;;;;;;;5.28;1.17;;;13.60;99.90;;;;;;5060522;28;20055;-60
2021/04/07 03:58:38;;;;;;;5.40;1.35;;;13.60;99.90;;;;;;5077305;28;20040;-60
2021/04/07 04:01:06;;;;;;;4.13;1.92;;;13.60;99.90;;;;;;5095027;28;20058;-60
2021/04/07 04:03:33;;;;;;;4.47;1.92;;;13.50;99.90;;;;;;5076117;28;20201;-60
2021/04/07 04:06:00;;;;;;;4.07;1.70;;;13.50;99.90;;;;;;5060110;28;20124;-60
2021/04/07 04:08:27;;;;;;;11.23;2.28;;;13.50;99.90;;;;;;5093785;28;20056;-60
2021/04/07 04:10:56;;;;;;;2.70;1.33;;;13.50;99.90;;;;;;5077162;28;20111;-60
2021/04/07 04:13:24;;;;;;;2.33;1.70;;;13.50;99.90;;;;;;5076171;28;20066;-59
2021/04/07 04:15:51;;;;;;;3.08;1.10;;;13.50;99.90;;;;;;5094745;28;20497;-60
2021/04/07 04:18:19;;;;;;;6.78;1.75;;;13.50;99.90;;;;;;5076907;28;20040;-60
2021/04/07 04:20:46;;;;;;;4.63;1.40;;;13.40;99.90;;;;;;5076546;28;20059;-60
2021/04/07 04:23:14;;;;;;;5.53;1.48;;;13.40;99.90;;;;;;5043498;28;20052;-60
2021/04/07 04:25:41;;;;;;;3.60;0.93;;;13.40;99.90;;;;;;5076720;28;20052;-60
2021/04/07 04:28:09;;;;;;;3.28;1.50;;;13.30;99.90;;;;;;5094791;28;20052;-60
2021/04/07 04:30:36;;;;;;;2.67;1.45;;;13.30;99.90;;;;;;5076652;28;20384;-60
2021/04/07 04:33:04;;;;;;;4.78;1.52;;;13.30;99.90;;;;;;5043582;28;20075;-60
2021/04/07 04:35:31;;;;;;;8.68;2.28;;;13.30;99.90;;;;;;5059900;28;20083;-60
2021/04/07 04:37:59;;;;;;;4.60;1.23;;;13.20;99.90;;;;;;5076559;28;20163;-60
2021/04/07 04:40:26;;;;;;;2.97;1.40;;;13.20;99.90;;;;;;5076462;28;20486;-60
2021/04/07 04:42:54;;;;;;;3.88;1.02;;;13.20;99.90;;;;;;5094388;28;20052;-60
2021/04/07 04:45:24;;;;;;;6.25;1.10;;;13.20;99.90;;;;;;5094582;28;20051;-60
2021/04/07 04:47:52;;;;;;;2.75;1.35;;;13.30;99.90;;;;;;5094309;28;20126;-60
2021/04/07 04:50:19;;;;;;;3.53;1.45;;;13.30;99.90;;;;;;5076019;28;20052;-60
2021/04/07 04:52:46;;;;;;;3.03;1.50;;;13.30;99.90;;;;;;5076097;28;20044;-60
2021/04/07 04:55:14;;;;;;;4.85;2.45;;;13.40;99.90;;;;;;5076232;28;20071;-60
2021/04/07 04:57:41;;;;;;;3.55;1.75;;;13.40;99.90;;;;;;5076056;28;20094;-60
2021/04/07 05:00:09;;;;;;;2.25;1.35;;;13.50;99.90;;;;;;5074370;28;20048;-59
2021/04/07 05:02:36;;;;;;;5.22;1.63;;;13.50;99.90;;;;;;5055957;28;20052;-60
2021/04/07 05:05:05;;;;;;;3.97;1.27;;;13.60;99.90;;;;;;5072942;28;20104;-60
2021/04/07 05:07:32;;;;;;;4.53;2.40;;;13.60;99.90;;;;;;5076028;28;20567;-60
2021/04/07 05:10:00;;;;;;;8.90;2.55;;;13.60;99.90;;;;;;5059476;28;20048;-60
2021/04/07 05:12:27;;;;;;;6.85;2.70;;;13.70;99.90;;;;;;5093896;28;20063;-60
2021/04/07 05:14:54;;;;;;;15.18;2.83;;;13.70;99.90;;;;;;5059290;28;20494;-59
2021/04/07 05:17:22;;;;;;;9.80;2.83;;;13.80;99.90;;;;;;5075811;28;20452;-60
2021/04/07 05:19:49;;;;;;;6.22;1.95;;;13.80;99.90;;;;;;5093696;28;20048;-60
2021/04/07 05:22:17;;;;;;;5.68;1.70;;;13.80;99.90;;;;;;5075852;28;20490;-60
2021/04/07 05:24:45;;;;;;;3.83;1.85;;;13.80;99.90;;;;;;5076180;28;20201;-60
2021/04/07 05:27:12;;;;;;;6.65;1.35;;;13.80;99.90;;;;;;5076074;28;20413;-60
2021/04/07 05:29:41;;;;;;;3.47;2.08;;;13.80;99.90;;;;;;5059112;28;20052;-60
2021/04/07 05:32:08;;;;;;;3.75;1.20;;;13.80;99.90;;;;;;5073328;28;20071;-60
2021/04/07 05:34:36;;;;;;;4.20;1.42;;;13.80;99.90;;;;;;5056957;28;20050;-60
2021/04/07 05:37:03;;;;;;;1.67;1.52;;;13.70;99.90;;;;;;5058789;28;20112;-60
2021/04/07 05:39:31;;;;;;;4.32;1.23;;;13.80;99.90;;;;;;5071741;28;20054;-60
2021/04/07 05:41:58;;;;;;;2.17;1.23;;;13.80;99.90;;;;;;5058506;28;20052;-60
2021/04/07 05:44:26;;;;;;;2.17;1.33;;;13.80;99.90;;;;;;5058893;28;20555;-60
2021/04/07 05:46:54;;;;;;;4.95;1.27;;;14.00;99.90;;;;;;5075070;28;20048;-61
2021/04/07 05:49:21;;;;;;;4.80;1.50;;;14.10;99.90;;;;;;5089933;28;20036;-60
2021/04/07 05:51:48;;;;;;;2.72;1.20;;;14.20;99.90;;;;;;5075739;28;20050;-60
2021/04/07 05:54:16;;;;;;;5.70;1.20;;;14.30;99.90;;;;;;5075728;28;20052;-60
2021/04/07 05:56:43;;;;;;;10.27;2.15;;;14.20;99.90;;;;;;5093588;28;20520;-60
2021/04/07 05:59:13;;;;;;;6.63;1.77;;;14.20;99.90;;;;;;5058631;28;20143;-61
2021/04/07 06:01:40;;;;;;;8.50;2.33;;;14.20;99.90;;;;;;5074861;28;20097;-61
2021/04/07 06:04:08;;;;;;;10.00;1.92;;;14.10;99.90;;;;;;5075661;28;20451;-60
2021/04/07 06:06:35;;;;;;;2.95;1.58;;;14.10;99.90;;;;;;5075038;28;20044;-61
2021/04/07 06:09:03;;;;;;;5.15;1.58;;;14.20;99.90;;;;;;5075558;28;20398;-60
2021/04/07 06:11:34;;;;;;;3.20;1.63;;;14.20;99.90;;;;;;5057935;28;20409;-60
2021/04/07 06:14:01;;;;;;;6.63;1.98;;;14.20;99.90;;;;;;5073448;28;20397;-60
2021/04/07 06:16:29;;;;;;;6.00;1.58;;;14.20;99.90;;;;;;5058481;28;20048;-60
2021/04/07 06:18:57;;;;;;;7.03;1.55;;;14.10;99.90;;;;;;5075129;28;20406;-61
2021/04/07 06:21:24;;;;;;;3.00;1.38;;;14.30;99.90;;;;;;5058068;28;20054;-60
2021/04/07 06:24:11;;;;;;;7.50;1.38;;;14.50;99.90;;;;;;5093439;28;20121;-60
2021/04/07 06:26:42;;;;;;;6.53;1.70;;;14.90;99.90;;;;;;5058498;28;20135;-61
2021/04/07 06:29:10;;;;;;;3.60;0.88;;;15.00;99.90;;;;;;5058218;28;20093;-60
2021/04/07 06:31:40;;;;;;;3.42;1.77;;;15.00;99.90;;;;;;5074918;28;20060;-60
2021/04/07 06:34:14;;;;;;;5.47;1.50;;;15.10;99.90;;;;;;5074775;28;20048;-60
2021/04/07 06:36:42;;;;;;;4.30;1.33;;;15.00;99.90;;;;;;5065759;28;20051;-60
2021/04/07 06:39:09;;;;;;;2.88;1.02;;;14.90;99.90;;;;;;5036552;28;20045;-60
2021/04/07 06:41:40;;;;;;;4.63;2.30;;;14.80;99.90;;;;;;5071765;28;20056;-60
2021/04/07 06:44:09;;;;;;;2.60;1.08;;;14.80;99.90;;;;;;5047993;28;20569;-61
2021/04/07 06:46:43;;;;;;;4.85;1.48;;;15.10;99.90;;;;;;5068194;28;20397;-61
2021/04/07 06:49:12;;;;;;;3.45;2.08;;;15.40;99.90;;;;;;5086186;28;20051;-61
2021/04/07 06:51:43;;;;;;;6.82;2.50;;;15.70;99.60;;;;;;5088535;28;20047;-60
2021/04/07 06:54:21;;;;;;;3.92;1.20;;;16.10;99.00;;;;;;5050523;28;20403;-61
2021/04/07 06:56:50;;;;;;;2.00;1.30;;;16.50;98.00;;;;;;5066266;28;20050;-61
2021/04/07 06:59:21;;;;;;;7.50;2.33;;;16.70;97.40;;;;;;5089253;28;20051;-60
2021/04/07 07:01:54;;;;;;;5.68;1.52;;;16.90;97.00;;;;;;5067953;28;20506;-61
2021/04/07 07:04:24;;;;;;;2.55;1.38;;;17.10;96.60;;;;;;5084692;28;20051;-61
2021/04/07 07:06:54;;;;;;;8.10;1.60;;;17.30;96.30;;;;;;5051493;28;20040;-60
2021/04/07 07:09:21;;;;;;;2.83;1.17;;;17.60;95.90;;;;;;5084182;28;20421;-60
2021/04/07 07:11:54;;;;;;;5.65;2.00;;;17.70;95.40;;;;;;5083242;28;20127;-60
2021/04/07 07:14:24;;;;;;;2.20;0.93;;;18.00;95.00;;;;;;5072693;28;20066;-60
2021/04/07 07:16:56;;;;;;;7.43;1.95;;;18.10;94.70;;;;;;5072514;28;20737;-60
2021/04/07 07:19:34;;;;;;;4.85;1.83;;;18.20;94.10;;;;;;5061098;28;20395;-60
2021/04/07 07:22:06;;;;;;;5.40;1.23;;;18.30;93.90;;;;;;5076389;28;20513;-60
2021/04/07 07:24:37;;;;;;;3.40;1.63;;;18.40;93.50;;;;;;5094181;28;20059;-60
2021/04/07 07:27:09;;;;;;;4.07;1.20;;;18.40;93.20;;;;;;5077914;28;20448;-60
2021/04/07 07:29:38;;;;;;;1.83;1.00;;;18.30;93.20;;;;;;5094226;28;20044;-60
2021/04/07 07:32:08;;;;;;;6.57;1.42;;;18.00;93.10;;;;;;5061211;28;20409;-60
2021/04/07 07:34:39;;;;;;;3.03;1.45;;;17.70;93.30;;;;;;5094469;28;20048;-60
2021/04/07 07:37:09;;;;;;;8.57;3.15;;;17.40;93.60;;;;;;5044780;28;20055;-60
2021/04/07 07:39:38;;;;;;;3.35;1.35;;;17.40;94.00;;;;;;5077740;28;20132;-60
2021/04/07 07:42:10;;;;;;;2.78;1.40;;;17.20;94.00;;;;;;5095688;28;20056;-59
2021/04/07 07:44:47;;;;;;;4.82;1.77;;;17.20;94.20;;;;;;5054513;28;20057;-60
2021/04/07 07:47:25;;;;;;;4.30;2.05;;;17.10;94.20;;;;;;5054790;28;20053;-60
2021/04/07 07:50:02;;;;;;;3.90;1.45;;;17.10;94.20;;;;;;5055208;28;20055;-59
2021/04/07 07:52:36;;;;;;;2.38;1.20;;;17.20;94.40;;;;;;5053572;28;20041;-60
2021/04/07 07:55:19;;;;;;;8.57;2.08;;;17.60;94.10;;;;;;5054714;28;20490;-60
2021/04/07 07:57:57;;;;;;;4.25;1.67;;;17.80;93.50;;;;;;5037065;28;20487;-60
2021/04/07 08:00:28;;;;;;;5.47;1.77;;;17.90;93.00;;;;;;5054806;28;20045;-60
2021/04/07 08:03:11;;;;;;;6.55;1.90;;;18.00;92.70;;;;;;5036373;28;20418;-60
2021/04/07 08:05:51;;;;;;;3.45;1.27;;;18.10;92.60;;;;;;5051313;28;20445;-60
2021/04/07 08:08:35;;;;;;;8.32;2.03;;;18.40;92.00;;;;;;5032962;28;20045;-60
2021/04/07 08:11:13;;;;;;;4.00;1.50;;;18.60;91.70;;;;;;5036386;28;20413;-60
2021/04/07 08:13:45;;;;;;;6.18;1.98;;;18.80;90.90;;;;;;5053929;28;20132;-60
2021/04/07 08:16:21;;;;;;;7.07;2.95;;;18.90;90.30;;;;;;5051900;28;20457;-60
2021/04/07 08:18:50;;;;;;;5.40;1.47;;;19.00;90.80;;;;;;5032581;28;20053;-60
2021/04/07 08:21:21;;;;;;;3.50;1.15;;;19.10;90.40;;;;;;5034629;28;20049;-60
2021/04/07 08:24:01;;;;;;;2.60;1.00;;;19.10;89.90;;;;;;5053154;28;20077;-62
2021/04/07 08:26:32;;;;;;;1.25;0.93;;;18.80;88.20;;;;;;5052994;28;20388;-60
2021/04/07 08:29:05;;;;;;;2.95;1.15;;;18.60;87.80;;;;;;5054087;28;20053;-62
2021/04/07 08:31:37;;;;;;;4.97;1.75;;;18.50;88.30;;;;;;5054086;28;20049;-62
2021/04/07 08:34:11;;;;;;;4.03;1.88;;;18.30;89.30;;;;;;5051932;28;20049;-62
2021/04/07 08:36:47;;;;;;;3.30;1.95;;;18.10;92.10;;;;;;5053342;28;20501;-62
2021/04/07 08:39:19;;;;;;;4.20;1.80;;;18.20;92.50;;;;;;5052026;28;20049;-62
2021/04/07 08:41:50;;;;;;;3.38;1.50;;;18.20;90.70;;;;;;5019824;28;20095;-62
2021/04/07 08:44:19;;;;;;;4.85;1.38;;;18.30;91.10;;;;;;5066827;28;20095;-62
2021/04/07 08:46:54;;;;;;;3.67;1.48;;;18.50;91.30;;;;;;5072531;28;20133;-62
2021/04/07 08:49:44;;;;;;;2.83;1.67;;;18.90;87.70;;;;;;5074031;28;20060;-62
2021/04/07 08:52:23;;;;;;;3.97;1.95;;;19.10;86.40;;;;;;5073554;28;20040;-62
2021/04/07 08:54:53;;;;;;;12.60;1.80;;;19.30;86.00;;;;;;5073611;28;20052;-62
2021/04/07 08:57:32;;;;;;;6.18;1.55;;;19.40;85.20;;;;;;5072236;28;20425;-62
2021/04/07 09:00:26;;;;;;;3.92;1.20;;;19.50;84.10;;;;;;5055830;28;20063;-62
2021/04/07 09:02:55;;;;;;;3.58;1.35;;;19.70;83.20;;;;;;5073497;28;20045;-62
2021/04/07 09:05:30;;;;;;;5.32;1.65;;;19.90;83.70;;;;;;5072449;28;20367;-62
2021/04/07 09:07:59;;;;;;;3.33;1.63;;;19.90;83.50;;;;;;5055264;28;20498;-62
2021/04/07 09:10:41;;;;;;;3.90;1.17;;;19.90;83.10;;;;;;5073107;28;20048;-62
2021/04/07 09:13:11;;;;;;;5.05;1.27;;;19.90;83.20;;;;;;5072190;28;20063;-62
2021/04/07 09:15:51;;;;;;;7.10;2.08;;;19.90;83.00;;;;;;5073158;28;20050;-62
2021/04/07 09:18:48;;;;;;;3.45;1.50;;;19.80;82.50;;;;;;5055395;28;20132;-62
2021/04/07 09:21:16;;;;;;;8.85;2.00;;;19.70;83.20;;;;;;5055624;28;20405;-62
2021/04/07 09:24:13;;;;;;;3.20;1.52;;;19.80;82.20;;;;;;5071926;28;20060;-61
2021/04/07 09:26:48;;;;;;;4.43;1.27;;;19.80;81.80;;;;;;5071823;28;20052;-62
2021/04/07 09:29:16;;;;;;;3.70;1.30;;;19.70;82.00;;;;;;5055320;28;20406;-62
2021/04/07 09:31:45;;;;;;;4.85;1.50;;;19.70;82.00;;;;;;5072005;28;20045;-62
2021/04/07 09:34:19;;;;;;;4.38;2.88;;;19.80;82.50;;;;;;5056295;28;20123;-62
2021/04/07 09:36:57;;;;;;;2.67;1.30;;;19.90;81.90;;;;;;5056666;28;20048;-62
2021/04/07 09:39:29;;;;;;;5.75;1.85;;;19.80;80.70;;;;;;5039252;28;20048;-62
2021/04/07 09:42:06;;;;;;;3.92;1.65;;;19.50;80.80;;;;;;5073241;28;20045;-62
2021/04/07 09:44:34;;;;;;;5.55;1.38;;;19.50;80.90;;;;;;5089635;28;20403;-62
2021/04/07 09:47:04;;;;;;;3.70;2.08;;;19.50;81.20;;;;;;5058344;28;20044;-62
2021/04/07 09:49:33;;;;;;;3.55;1.80;;;19.40;81.40;;;;;;5075103;28;20052;-62
2021/04/07 09:52:02;;;;;;;4.03;1.30;;;19.20;82.20;;;;;;5093324;28;20052;-62
2021/04/07 09:54:35;;;;;;;3.90;1.50;;;19.10;82.40;;;;;;5093083;28;20052;-62
2021/04/07 09:57:12;;;;;;;6.47;1.60;;;19.00;82.30;;;;;;5093302;28;20460;-62
2021/04/07 09:59:50;;;;;;;4.57;1.38;;;19.00;82.10;;;;;;5092980;28;20048;-63
2021/04/07 10:02:27;;;;;;;5.75;1.92;;;18.90;82.30;;;;;;5041909;28;20044;-63
2021/04/07 10:04:56;;;;;;;4.63;2.08;;;19.10;82.60;;;;;;5093122;28;20074;-63
2021/04/07 10:07:26;;;;;;;4.00;1.33;;;19.30;81.60;;;;;;5092313;28;20388;-63
2021/04/07 10:09:58;;;;;;;3.33;1.50;;;19.40;82.20;;;;;;5073501;28;20051;-63
2021/04/07 10:12:28;;;;;;;3.42;1.42;;;19.50;80.70;;;;;;5091623;28;20494;-63
2021/04/07 10:15:01;;;;;;;3.47;1.65;;;19.50;80.90;;;;;;5072953;28;20912;-63
2021/04/07 10:17:33;;;;;;;5.45;1.88;;;19.50;80.70;;;;;;5090679;28;20052;-63
2021/04/07 10:20:09;;;;;;;4.20;2.08;;;19.40;80.90;;;;;;5094088;28;20098;-63
2021/04/07 10:22:41;;;;;;;2.47;1.40;;;19.30;81.20;;;;;;5096538;28;20044;-63
2021/04/07 10:25:17;;;;;;;2.78;1.55;;;19.10;81.30;;;;;;5096630;28;20048;-63
2021/04/07 10:27:49;;;;;;;6.82;1.58;;;18.90;81.70;;;;;;5078514;28;20055;-64
2021/04/07 10:30:24;;;;;;;6.43;1.73;;;18.80;81.80;;;;;;5078758;28;20040;-64
2021/04/07 10:32:58;;;;;;;2.95;1.63;;;18.90;82.20;;;;;;5062469;28;20044;-63
2021/04/07 10:35:32;;;;;;;2.58;1.50;;;19.00;82.00;;;;;;5093977;28;20066;-63
2021/04/07 10:38:15;;;;;;;1.95;1.00;;;19.00;82.20;;;;;;5096453;28;20490;-63
2021/04/07 10:41:03;;;;;;;5.32;1.15;;;18.80;81.80;;;;;;5096494;28;20509;-64
2021/04/07 10:43:40;;;;;;;3.58;1.10;;;18.60;82.20;;;;;;5050196;28;20079;-63
2021/04/07 10:46:09;;;;;;;4.65;1.45;;;18.60;82.30;;;;;;5054301;28;20391;-63
2021/04/07 10:48:42;;;;;;;5.07;1.00;;;18.50;82.40;;;;;;5054941;28;20363;-63
2021/04/07 10:51:22;;;;;;;2.28;1.20;;;18.30;81.80;;;;;;5056119;28;20052;-63
2021/04/07 10:54:00;;;;;;;5.75;1.27;;;18.20;81.60;;;;;;5054575;28;20066;-63
2021/04/07 10:56:31;;;;;;;5.93;2.60;;;17.90;81.20;;;;;;5054207;28;20483;-63
2021/04/07 10:59:01;;;;;;;8.43;1.45;;;18.00;81.60;;;;;;5054734;28;20069;-61
2021/04/07 11:01:30;;;;;;;7.47;1.52;;;17.90;81.60;;;;;;5055878;28;20095;-63
2021/04/07 11:04:10;;;;;;;5.93;1.70;;;18.00;81.10;;;;;;5054551;28;20134;-63
2021/04/07 11:06:39;;;;;;;4.28;1.10;;;18.00;80.90;;;;;;5054661;28;20061;-64
2021/04/07 11:09:11;;;;;;;3.72;1.45;;;18.00;80.10;;;;;;5053948;28;20469;-63
2021/04/07 11:11:43;;;;;;;5.25;1.45;;;17.90;80.70;;;;;;5055587;28;20045;-63
2021/04/07 11:14:14;;;;;;;7.03;1.45;;;17.80;80.10;;;;;;5052086;28;20118;-63
2021/04/07 11:16:44;;;;;;;6.57;1.30;;;17.70;79.80;;;;;;5050470;28;20075;-63
2021/04/07 11:19:16;;;;;;;5.07;1.10;;;17.60;80.00;;;;;;5048975;28;20054;-62
2021/04/07 11:21:44;;;;;;;3.13;1.40;;;17.60;80.10;;;;;;5049357;28;20041;-63
2021/04/07 11:24:12;;;;;;;3.13;1.08;;;17.60;79.70;;;;;;5031453;28;20075;-63
2021/04/07 11:26:43;;;;;;;4.70;1.65;;;17.70;80.60;;;;;;5028653;28;20171;-63
2021/04/07 11:29:11;;;;;;;5.50;1.38;;;17.70;80.10;;;;;;5050611;28;20459;-64
2021/04/07 11:31:38;;;;;;;6.68;1.63;;;17.80;80.20;;;;;;5036140;28;20045;-63
2021/04/07 11:34:09;;;;;;;3.55;1.20;;;17.80;79.40;;;;;;5034932;28;20052;-63
2021/04/07 11:42:00;;;;;;;3.38;1.00;;;17.60;79.40;;;;;;5054318;28;20044;-63
2021/04/07 11:44:31;;;;;;;3.30;1.40;;;17.60;79.30;;;;;;5036605;28;20495;-63
2021/04/07 11:47:02;;;;;;;6.63;1.35;;;17.70;79.60;;;;;;5075277;28;20056;-63
2021/04/07 11:49:35;;;;;;;2.13;0.95;;;17.60;78.80;;;;;;5074006;28;20051;-63
2021/04/07 11:52:04;;;;;;;3.70;1.17;;;17.50;79.30;;;;;;5075279;28;20047;-63
2021/04/07 11:54:32;;;;;;;6.00;2.13;;;17.60;78.90;;;;;;5057211;28;20106;-63
2021/04/07 11:56:59;;;;;;;3.03;1.88;;;17.50;79.70;;;;;;5057403;28;20049;-63
2021/04/07 11:59:30;;;;;;;6.18;2.08;;;17.40;78.90;;;;;;5073782;28;20055;-63
2021/04/07 12:02:01;;;;;;;2.65;1.42;;;17.30;78.90;;;;;;5057397;28;20487;-63
2021/04/07 12:04:32;;;;;;;2.33;0.93;;;17.20;80.00;;;;;;5075099;28;20441;-63
2021/04/07 12:07:01;;;;;;;4.25;1.40;;;17.10;79.50;;;;;;5057317;28;20407;-63
2021/04/07 12:09:33;;;;;;;3.38;1.10;;;17.00;79.20;;;;;;5041109;28;20048;-63
2021/04/07 12:12:01;;;;;;;1.30;1.17;;;17.10;79.80;;;;;;5074596;28;20501;-63
2021/04/07 12:14:29;;;;;;;1.83;1.05;;;17.10;80.30;;;;;;5073559;28;20044;-63
2021/04/07 12:16:56;;;;;;;2.22;1.42;;;17.10;80.30;;;;;;5072847;28;20048;-63
2021/04/07 12:19:27;;;;;;;5.40;1.60;;;17.20;80.10;;;;;;5057422;28;20135;-63
2021/04/07 12:21:55;;;;;;;2.17;1.15;;;17.30;80.40;;;;;;5072191;28;20063;-63
2021/04/07 12:24:23;;;;;;;5.00;1.60;;;17.40;79.60;;;;;;5039650;28;20503;-63
2021/04/07 12:26:51;;;;;;;3.25;1.27;;;17.30;79.20;;;;;;5056745;28;20040;-63
2021/04/07 12:29:18;;;;;;;4.97;0.88;;;17.10;79.60;;;;;;5040330;28;20406;-63
2021/04/07 12:31:48;;;;;;;2.85;1.08;;;17.20;79.40;;;;;;5073284;28;20056;-63
2021/04/07 12:34:16;;;;;;;2.83;1.00;;;17.20;79.60;;;;;;5056259;28;20049;-62
2021/04/07 12:36:49;;;;;;;3.70;0.90;;;17.10;79.70;;;;;;5073006;28;20080;-63
2021/04/07 12:39:22;;;;;;;4.30;1.15;;;17.20;80.10;;;;;;5040062;28;20063;-63
2021/04/07 12:41:53;;;;;;;1.80;1.15;;;17.20;79.80;;;;;;5056133;28;20072;-63
2021/04/07 12:44:24;;;;;;;2.35;1.35;;;17.20;78.90;;;;;;5088927;28;20414;-63
2021/04/07 12:46:55;;;;;;;1.17;0.80;;;17.30;79.40;;;;;;5060369;28;20044;-63
2021/04/07 12:49:30;;;;;;;2.17;1.00;;;17.30;79.30;;;;;;5076952;28;20040;-63
2021/04/07 12:52:00;;;;;;;2.22;1.08;;;17.20;78.80;;;;;;5094383;28;20052;-63
2021/04/07 12:54:39;;;;;;;1.85;1.00;;;17.20;79.10;;;;;;5059458;28;20051;-64
2021/04/07 12:57:16;;;;;;;5.78;1.42;;;17.10;79.60;;;;;;5060452;28;20051;-63
2021/04/07 12:59:46;;;;;;;2.55;1.38;;;17.10;80.90;;;;;;5059988;28;20072;-63
2021/04/07 13:02:14;;;;;;;3.45;1.27;;;17.00;80.70;;;;;;5058862;28;20391;-63
2021/04/07 13:04:42;;;;;;;3.70;1.10;;;16.90;81.40;;;;;;5075854;28;20498;-63
2021/04/07 13:07:11;;;;;;;2.92;0.70;;;16.70;81.90;;;;;;5076328;28;20144;-63